AUA61 LOWW-FIMP
Flight info
| Callsign | AUA61 |
|---|---|
| Flight time | N/A |
| Altitude | 35000 |
| Route | ARSIN DCT NALOX DCT BABIT DCT NISVA DCT DOTAM DCT NIKTI/N0479F370 DCT MES UL609 RDS DCT VANZA DCT RASDA A16 CVO A727 LXR M999 JDW G650 RIBAM/N0485F390 G650 RASKA/N0488F380 G650 ASM/N0483F390 UR780 SETIT DCT XADOX DCT DWA UN304 NIBAK/N0481F410 UN304 MAEVA UL433 APKOT DCT TIBAG TIBAG2E |
| Aircraft | B772/H-SDE2E3FGHIJ5LORVWXY/LB1D1 |
Departure
| Time | 2026-04-24 07:49 |
|---|---|
| Airport | Vienna International Airport (LOWW) |
Arrival
| Time | N/A |
|---|---|
| Airport | Sir Seewoosagur Ramgoolam International Airport (FIMP) |
| Time | Latitude | Longitude | Altitude | Speed | Heading |
|---|---|---|---|---|---|
| 2026-04-24 07:27 | 48.11705 | 16.56814 | 626 ft | 0 kts | 24° |
| 2026-04-24 07:41 | 48.11696 | 16.56808 | 629 ft | 4 kts | 30° |
| 2026-04-24 07:41 | 48.11675 | 16.56783 | 629 ft | 4 kts | 46° |
| 2026-04-24 07:41 | 48.11657 | 16.56759 | 629 ft | 4 kts | 41° |
| 2026-04-24 07:42 | 48.11644 | 16.56730 | 629 ft | 4 kts | 95° |
| 2026-04-24 07:42 | 48.11651 | 16.56696 | 629 ft | 2 kts | 116° |
| 2026-04-24 07:42 | 48.11652 | 16.56694 | 629 ft | 0 kts | 116° |
| 2026-04-24 07:45 | 48.11644 | 16.56720 | 629 ft | 9 kts | 116° |
| 2026-04-24 07:45 | 48.11597 | 16.56865 | 625 ft | 18 kts | 116° |
| 2026-04-24 07:45 | 48.11541 | 16.57037 | 625 ft | 18 kts | 116° |
| 2026-04-24 07:45 | 48.11485 | 16.57209 | 629 ft | 18 kts | 116° |
| 2026-04-24 07:46 | 48.11424 | 16.57372 | 621 ft | 17 kts | 141° |
| 2026-04-24 07:46 | 48.11323 | 16.57339 | 625 ft | 15 kts | 204° |
| 2026-04-24 07:46 | 48.11224 | 16.57277 | 623 ft | 15 kts | 185° |
| 2026-04-24 07:46 | 48.11186 | 16.57340 | 626 ft | 8 kts | 111° |
| 2026-04-24 07:47 | 48.11157 | 16.57437 | 624 ft | 16 kts | 115° |
| 2026-04-24 07:47 | 48.11112 | 16.57579 | 626 ft | 15 kts | 115° |
| 2026-04-24 07:47 | 48.11031 | 16.57638 | 625 ft | 15 kts | 197° |
| 2026-04-24 07:47 | 48.10940 | 16.57574 | 629 ft | 14 kts | 206° |
| 2026-04-24 07:48 | 48.10921 | 16.57520 | 623 ft | 4 kts | 291° |
| 2026-04-24 07:48 | 48.10940 | 16.57457 | 625 ft | 16 kts | 294° |
| 2026-04-24 07:48 | 48.11086 | 16.57006 | 625 ft | 82 kts | 296° |
| 2026-04-24 07:48 | 48.11428 | 16.55956 | 618 ft | 141 kts | 296° |
| 2026-04-24 07:49 | 48.11912 | 16.54433 | 783 ft | 173 kts | 297° |
| 2026-04-24 07:49 | 48.12356 | 16.52744 | 1361 ft | 180 kts | 273° |
| 2026-04-24 07:49 | 48.11956 | 16.50932 | 1967 ft | 197 kts | 238° |
| 2026-04-24 07:49 | 48.10808 | 16.49651 | 2447 ft | 215 kts | 211° |
| 2026-04-24 07:50 | 48.09403 | 16.48637 | 2714 ft | 234 kts | 210° |
| 2026-04-24 07:50 | 48.07872 | 16.47556 | 2876 ft | 253 kts | 206° |
| 2026-04-24 07:50 | 48.06101 | 16.47122 | 3081 ft | 274 kts | 173° |
| 2026-04-24 07:50 | 48.04199 | 16.47716 | 3421 ft | 285 kts | 169° |
| 2026-04-24 07:51 | 48.02230 | 16.48202 | 4101 ft | 286 kts | 174° |
| 2026-04-24 07:51 | 48.00252 | 16.48589 | 4763 ft | 289 kts | 175° |
| 2026-04-24 07:51 | 47.98240 | 16.48951 | 5356 ft | 291 kts | 178° |
| 2026-04-24 07:51 | 47.96254 | 16.48694 | 5754 ft | 286 kts | 207° |
| 2026-04-24 07:52 | 47.94528 | 16.47312 | 6247 ft | 282 kts | 215° |
| 2026-04-24 07:52 | 47.92792 | 16.45907 | 6815 ft | 285 kts | 213° |
| 2026-04-24 07:52 | 47.91016 | 16.44534 | 7344 ft | 290 kts | 212° |
| 2026-04-24 07:52 | 47.89162 | 16.43339 | 7763 ft | 297 kts | 195° |
| 2026-04-24 07:53 | 47.87093 | 16.43445 | 8145 ft | 310 kts | 161° |
| 2026-04-24 07:53 | 47.85230 | 16.45006 | 8692 ft | 307 kts | 143° |
| 2026-04-24 07:53 | 47.83487 | 16.46909 | 9157 ft | 312 kts | 143° |
| 2026-04-24 07:53 | 47.81723 | 16.48814 | 9740 ft | 311 kts | 142° |
| 2026-04-24 07:54 | 47.79972 | 16.50700 | 10292 ft | 312 kts | 142° |
| 2026-04-24 07:54 | 47.78176 | 16.52631 | 10476 ft | 327 kts | 142° |
| 2026-04-24 07:54 | 47.76287 | 16.54655 | 10612 ft | 343 kts | 143° |
| 2026-04-24 07:54 | 47.74294 | 16.56782 | 10744 ft | 361 kts | 143° |
| 2026-04-24 07:55 | 47.72193 | 16.59021 | 10886 ft | 381 kts | 143° |
| 2026-04-24 07:55 | 47.70026 | 16.61322 | 11252 ft | 394 kts | 143° |
| 2026-04-24 07:55 | 47.67770 | 16.63711 | 11810 ft | 402 kts | 143° |
| 2026-04-24 07:55 | 47.65484 | 16.66129 | 12610 ft | 404 kts | 143° |
| 2026-04-24 07:56 | 47.63187 | 16.68558 | 13405 ft | 408 kts | 143° |
| 2026-04-24 07:56 | 47.60860 | 16.71013 | 14078 ft | 413 kts | 143° |
| 2026-04-24 07:56 | 47.58462 | 16.73366 | 14626 ft | 417 kts | 150° |
| 2026-04-24 07:56 | 47.55761 | 16.75038 | 15217 ft | 423 kts | 163° |
| 2026-04-24 07:57 | 47.52872 | 16.75921 | 15887 ft | 425 kts | 174° |
| 2026-04-24 07:57 | 47.49912 | 16.76203 | 16400 ft | 429 kts | 176° |
| 2026-04-24 07:57 | 47.46909 | 16.76437 | 16917 ft | 435 kts | 176° |
| 2026-04-24 07:57 | 47.43872 | 16.76683 | 17506 ft | 438 kts | 176° |
| 2026-04-24 07:58 | 47.40817 | 16.76943 | 18111 ft | 441 kts | 175° |
| 2026-04-24 07:58 | 47.37743 | 16.77218 | 18636 ft | 445 kts | 175° |
| 2026-04-24 07:58 | 47.34677 | 16.77501 | 19114 ft | 448 kts | 175° |
| 2026-04-24 07:58 | 47.31554 | 16.77795 | 19641 ft | 450 kts | 175° |
| 2026-04-24 07:59 | 47.28425 | 16.78092 | 20151 ft | 452 kts | 175° |
| 2026-04-24 07:59 | 47.25270 | 16.78392 | 20625 ft | 455 kts | 175° |
| 2026-04-24 07:59 | 47.22093 | 16.78695 | 21075 ft | 459 kts | 174° |
| 2026-04-24 07:59 | 47.18898 | 16.78999 | 21527 ft | 461 kts | 174° |
| 2026-04-24 08:00 | 47.15687 | 16.79303 | 22016 ft | 464 kts | 174° |
| 2026-04-24 08:00 | 47.12456 | 16.79610 | 22489 ft | 466 kts | 174° |
| 2026-04-24 08:00 | 47.09206 | 16.79917 | 22947 ft | 469 kts | 174° |
| 2026-04-24 08:00 | 47.05933 | 16.80225 | 23398 ft | 472 kts | 174° |
| 2026-04-24 08:01 | 47.02650 | 16.80533 | 23813 ft | 475 kts | 174° |
| 2026-04-24 08:01 | 46.99342 | 16.80844 | 24194 ft | 477 kts | 174° |
| 2026-04-24 08:01 | 46.96021 | 16.81155 | 24589 ft | 479 kts | 173° |
| 2026-04-24 08:01 | 46.92738 | 16.81468 | 24976 ft | 477 kts | 172° |
| 2026-04-24 08:02 | 46.89495 | 16.82369 | 25121 ft | 474 kts | 156° |
| 2026-04-24 08:02 | 46.86627 | 16.84693 | 25368 ft | 469 kts | 137° |
| 2026-04-24 08:02 | 46.84321 | 16.88002 | 25743 ft | 462 kts | 124° |
| 2026-04-24 08:02 | 46.82568 | 16.91891 | 26080 ft | 457 kts | 117° |
| 2026-04-24 08:03 | 46.80910 | 16.95883 | 26328 ft | 462 kts | 117° |
| 2026-04-24 08:03 | 46.79231 | 16.99900 | 26660 ft | 465 kts | 117° |
| 2026-04-24 08:03 | 46.77529 | 17.03931 | 27037 ft | 467 kts | 117° |
| 2026-04-24 08:03 | 46.75815 | 17.07955 | 27410 ft | 468 kts | 118° |
| 2026-04-24 08:04 | 46.74082 | 17.11994 | 27768 ft | 470 kts | 118° |
| 2026-04-24 08:04 | 46.72338 | 17.16035 | 28101 ft | 473 kts | 118° |
| 2026-04-24 08:04 | 46.70579 | 17.20094 | 28402 ft | 475 kts | 118° |
| 2026-04-24 08:04 | 46.68810 | 17.24164 | 28731 ft | 476 kts | 118° |
| 2026-04-24 08:05 | 46.67030 | 17.28251 | 29069 ft | 477 kts | 118° |
| 2026-04-24 08:05 | 46.65270 | 17.32289 | 29333 ft | 479 kts | 118° |
| 2026-04-24 08:05 | 46.63475 | 17.36403 | 29596 ft | 482 kts | 118° |
| 2026-04-24 08:05 | 46.61672 | 17.40528 | 29849 ft | 483 kts | 118° |
| 2026-04-24 08:06 | 46.59864 | 17.44660 | 30095 ft | 485 kts | 118° |
| 2026-04-24 08:06 | 46.58048 | 17.48804 | 30374 ft | 485 kts | 118° |
| 2026-04-24 08:06 | 46.56233 | 17.52937 | 30683 ft | 484 kts | 118° |
| 2026-04-24 08:06 | 46.54424 | 17.57050 | 30980 ft | 483 kts | 118° |
| 2026-04-24 08:07 | 46.52617 | 17.61155 | 31306 ft | 482 kts | 118° |
| 2026-04-24 08:07 | 46.50810 | 17.65253 | 31619 ft | 481 kts | 118° |
| 2026-04-24 08:07 | 46.49007 | 17.69335 | 31920 ft | 480 kts | 118° |
| 2026-04-24 08:07 | 46.47226 | 17.73364 | 32217 ft | 480 kts | 117° |
| 2026-04-24 08:08 | 46.45426 | 17.77430 | 32538 ft | 479 kts | 117° |
| 2026-04-24 08:08 | 46.43626 | 17.81491 | 32821 ft | 478 kts | 117° |
| 2026-04-24 08:08 | 46.41828 | 17.85540 | 33125 ft | 477 kts | 117° |
| 2026-04-24 08:09 | 46.38235 | 17.93614 | 33748 ft | 476 kts | 117° |
| 2026-04-24 08:09 | 46.36443 | 17.97631 | 34155 ft | 472 kts | 117° |
| 2026-04-24 08:09 | 46.34660 | 18.01619 | 34459 ft | 471 kts | 117° |
| 2026-04-24 08:09 | 46.32880 | 18.05601 | 34654 ft | 472 kts | 117° |
| 2026-04-24 08:10 | 46.31093 | 18.09594 | 34826 ft | 473 kts | 117° |
| 2026-04-24 08:10 | 46.29300 | 18.13595 | 34998 ft | 474 kts | 117° |
| 2026-04-24 08:10 | 46.27500 | 18.17605 | 35058 ft | 477 kts | 117° |
| 2026-04-24 08:11 | 46.23894 | 18.25618 | 35128 ft | 478 kts | 117° |
| 2026-04-24 08:11 | 46.20278 | 18.33618 | 35120 ft | 472 kts | 117° |
| 2026-04-24 08:12 | 46.16685 | 18.41551 | 35121 ft | 471 kts | 117° |
| 2026-04-24 08:12 | 46.13703 | 18.48124 | 35120 ft | 471 kts | 117° |
| 2026-04-24 08:13 | 46.10116 | 18.56010 | 35121 ft | 471 kts | 117° |
| 2026-04-24 08:13 | 46.06515 | 18.63906 | 35125 ft | 472 kts | 117° |
| 2026-04-24 08:14 | 46.02902 | 18.71802 | 35107 ft | 472 kts | 117° |
| 2026-04-24 08:14 | 45.99281 | 18.79692 | 35103 ft | 472 kts | 117° |
| 2026-04-24 08:15 | 45.95654 | 18.87578 | 35101 ft | 473 kts | 117° |
| 2026-04-24 08:15 | 45.91686 | 18.95165 | 35095 ft | 480 kts | 127° |
| 2026-04-24 08:16 | 45.86883 | 19.01902 | 35095 ft | 483 kts | 130° |
| 2026-04-24 08:16 | 45.82036 | 19.08587 | 35097 ft | 483 kts | 130° |
| 2026-04-24 08:17 | 45.77237 | 19.15253 | 35096 ft | 484 kts | 130° |
| 2026-04-24 08:17 | 45.72414 | 19.21972 | 35096 ft | 484 kts | 130° |
| 2026-04-24 08:18 | 45.67585 | 19.28691 | 35087 ft | 484 kts | 130° |
| 2026-04-24 08:18 | 45.62751 | 19.35399 | 35087 ft | 484 kts | 130° |
| 2026-04-24 08:19 | 45.57914 | 19.42091 | 35084 ft | 484 kts | 130° |